createdAt,value
2022-08-01T00:00:09.422Z,17.27
2022-08-01T00:02:40.009Z,17.00
2022-08-01T00:05:08.103Z,14.70
2022-08-01T00:07:35.805Z,14.85
2022-08-01T00:10:06.972Z,13.80
2022-08-01T00:12:33.540Z,15.77
2022-08-01T00:15:00.313Z,23.13
2022-08-01T00:17:26.815Z,17.50
2022-08-01T00:19:53.367Z,17.08
2022-08-01T00:22:19.797Z,13.50
2022-08-01T00:24:46.473Z,13.75
2022-08-01T00:27:12.906Z,14.50
2022-08-01T00:30:11.263Z,14.98
2022-08-01T00:32:26.013Z,14.02
2022-08-01T00:34:52.681Z,18.38
2022-08-01T00:37:19.159Z,19.02
2022-08-01T00:39:45.729Z,17.85
2022-08-01T00:42:13.708Z,16.92
2022-08-01T00:44:41.094Z,16.73
2022-08-01T00:47:08.123Z,18.10
2022-08-01T00:49:35.136Z,17.02
2022-08-01T00:52:05.558Z,20.77
2022-08-01T00:54:33.253Z,16.25
2022-08-01T00:57:00.099Z,16.83
2022-08-01T00:59:27.964Z,17.75
2022-08-01T01:01:55.223Z,17.13
2022-08-01T01:04:22.756Z,19.70
2022-08-01T01:07:14.493Z,14.80
2022-08-01T01:09:51.364Z,16.13
2022-08-01T01:12:37.273Z,15.85
2022-08-01T01:15:12.506Z,12.20
2022-08-01T01:18:07.898Z,16.13
2022-08-01T01:20:40.829Z,19.30
2022-08-01T01:23:13.290Z,15.50
2022-08-01T01:25:39.787Z,13.32
2022-08-01T01:28:15.795Z,15.32
2022-08-01T01:30:45.663Z,14.15
2022-08-01T01:33:14.666Z,16.05
2022-08-01T01:35:45.903Z,15.68
2022-08-01T01:38:21.061Z,13.90
2022-08-01T01:40:49.882Z,14.40
2022-08-01T01:43:17.748Z,14.15
2022-08-01T01:45:46.341Z,14.48
2022-08-01T01:48:15.811Z,13.07
2022-08-01T01:50:44.166Z,17.27
2022-08-01T01:53:15.140Z,15.40
2022-08-01T01:55:49.866Z,20.35
2022-08-01T01:58:18.698Z,15.13
2022-08-01T02:00:48.452Z,16.48
2022-08-01T02:03:18.465Z,13.57
2022-08-01T02:05:45.314Z,15.70
2022-08-01T02:08:15.312Z,15.00
2022-08-01T02:10:42.631Z,13.25
2022-08-01T02:13:09.729Z,17.35
2022-08-01T02:15:59.983Z,13.07
2022-08-01T02:18:27.595Z,16.08
2022-08-01T02:20:56.875Z,12.07
2022-08-01T02:23:28.101Z,15.25
2022-08-01T02:26:11.008Z,14.98
2022-08-01T02:28:51.635Z,15.90
2022-08-01T02:31:21.542Z,15.02
2022-08-01T02:33:57.845Z,14.25
2022-08-01T02:36:30.629Z,11.25
2022-08-01T02:39:01.451Z,10.95
2022-08-01T02:41:30.104Z,12.25
2022-08-01T02:44:00.990Z,14.73
2022-08-01T02:46:34.147Z,13.75
2022-08-01T02:49:03.688Z,11.00
2022-08-01T02:51:32.028Z,11.10
2022-08-01T02:54:01.228Z,20.58
2022-08-01T02:56:35.880Z,9.15
2022-08-01T02:59:06.199Z,10.18
2022-08-01T03:01:37.579Z,11.10
2022-08-01T03:04:08.153Z,12.05
2022-08-01T03:06:35.813Z,14.15
2022-08-01T03:09:04.792Z,14.75
2022-08-01T03:11:33.490Z,12.35
2022-08-01T03:14:03.743Z,8.38
2022-08-01T03:16:33.217Z,9.13
2022-08-01T03:19:02.823Z,9.50
2022-08-01T03:21:31.216Z,8.52
2022-08-01T03:24:01.141Z,9.48
2022-08-01T03:26:29.946Z,12.30
2022-08-01T03:29:00.560Z,12.43
2022-08-01T03:31:28.632Z,10.30
2022-08-01T03:33:55.505Z,13.45
2022-08-01T03:36:26.405Z,16.42
2022-08-01T03:38:57.034Z,13.95
2022-08-01T03:41:26.212Z,11.45
2022-08-01T03:44:17.037Z,15.55
2022-08-01T03:46:48.306Z,10.73
2022-08-01T03:49:38.145Z,11.68
2022-08-01T03:52:08.030Z,8.73
2022-08-01T03:54:38.410Z,8.88
2022-08-01T03:57:06.281Z,9.20
2022-08-01T03:59:35.268Z,8.70
2022-08-01T04:02:01.941Z,8.77
2022-08-01T04:04:29.701Z,11.82
2022-08-01T04:06:56.607Z,8.95
2022-08-01T04:09:23.140Z,9.93
2022-08-01T04:11:49.791Z,7.00
2022-08-01T04:14:16.228Z,15.40
2022-08-01T04:16:42.769Z,9.23
2022-08-01T04:19:09.193Z,8.35
2022-08-01T04:21:36.688Z,7.70
2022-08-01T04:24:09.735Z,5.32
2022-08-01T04:26:38.061Z,8.02
2022-08-01T04:29:05.951Z,5.55
2022-08-01T04:31:33.657Z,7.93
2022-08-01T04:34:02.033Z,5.82
2022-08-01T04:36:31.245Z,7.68
2022-08-01T04:39:01.078Z,6.72
2022-08-01T04:41:27.968Z,7.40
2022-08-01T04:43:55.829Z,11.40
2022-08-01T04:46:23.321Z,8.02
2022-08-01T04:48:51.332Z,8.77
2022-08-01T04:51:18.698Z,7.57
2022-08-01T04:53:46.791Z,6.47
2022-08-01T04:56:14.235Z,8.30
2022-08-01T04:58:42.331Z,6.40
2022-08-01T05:01:10.341Z,7.00
2022-08-01T05:03:39.032Z,11.65
2022-08-01T05:06:06.359Z,8.55
2022-08-01T05:08:32.760Z,8.65
2022-08-01T05:10:59.639Z,8.73
2022-08-01T05:13:26.686Z,8.18
2022-08-01T05:15:53.535Z,12.75
2022-08-01T05:18:28.070Z,7.68
2022-08-01T05:20:55.624Z,3.35
2022-08-01T05:23:30.325Z,5.07
2022-08-01T05:26:08.922Z,3.70
2022-08-01T05:28:36.244Z,3.50
2022-08-01T05:31:03.565Z,3.05
2022-08-01T05:33:30.077Z,5.72
2022-08-01T05:35:56.630Z,4.70
2022-08-01T05:38:23.080Z,3.50
2022-08-01T05:40:49.570Z,2.00
2022-08-01T05:43:16.048Z,6.20
2022-08-01T05:45:42.727Z,3.75
2022-08-01T05:48:09.321Z,4.30
2022-08-01T05:50:35.716Z,4.88
2022-08-01T05:53:02.709Z,4.88
2022-08-01T05:55:29.360Z,5.25
2022-08-01T05:57:55.881Z,10.57
2022-08-01T06:00:22.318Z,5.53
2022-08-01T06:02:48.803Z,7.63
2022-08-01T06:05:15.371Z,4.88
2022-08-01T06:07:41.899Z,8.52
2022-08-01T06:10:09.162Z,4.28
2022-08-01T06:12:36.726Z,6.45
2022-08-01T06:15:04.817Z,3.67
2022-08-01T06:17:31.440Z,9.52
2022-08-01T06:19:57.974Z,17.08
2022-08-01T06:22:24.413Z,7.63
2022-08-01T06:24:52.290Z,9.10
2022-08-01T06:27:21.690Z,14.85
2022-08-01T06:29:50.392Z,7.38
2022-08-01T06:32:27.017Z,13.23
2022-08-01T06:34:56.030Z,11.10
2022-08-01T06:37:23.180Z,6.80
2022-08-01T06:39:50.529Z,10.00
2022-08-01T06:42:17.711Z,10.73
2022-08-01T06:44:44.235Z,14.13
2022-08-01T06:47:10.680Z,8.30
2022-08-01T06:49:37.268Z,15.38
2022-08-01T06:52:05.047Z,12.68
2022-08-01T06:54:31.791Z,8.95
2022-08-01T06:56:58.335Z,10.25
2022-08-01T06:59:24.776Z,9.35
2022-08-01T07:01:51.217Z,9.02
2022-08-01T07:04:17.817Z,17.05
2022-08-01T07:06:44.342Z,14.95
2022-08-01T07:09:14.211Z,16.98
2022-08-01T07:11:41.708Z,15.35
2022-08-01T07:14:08.583Z,12.63
2022-08-01T07:16:35.242Z,15.85
2022-08-01T07:19:01.783Z,16.55
2022-08-01T07:21:38.594Z,11.45
2022-08-01T07:24:13.163Z,14.27
2022-08-01T07:26:52.150Z,15.60
2022-08-01T07:29:26.922Z,18.35
2022-08-01T07:31:55.161Z,14.15
2022-08-01T07:34:22.422Z,13.77
2022-08-01T07:36:49.051Z,10.38
2022-08-01T07:39:15.544Z,14.40
2022-08-01T07:41:53.232Z,15.90
2022-08-01T07:44:29.346Z,15.20
2022-08-01T07:46:55.942Z,18.77
2022-08-01T07:49:22.927Z,17.40
2022-08-01T07:52:03.915Z,11.88
2022-08-01T07:54:33.057Z,15.10
2022-08-01T07:57:00.636Z,20.42
2022-08-01T07:59:27.281Z,15.90
2022-08-01T08:01:53.751Z,15.13
2022-08-01T08:04:20.319Z,14.57
2022-08-01T08:06:48.462Z,14.13
2022-08-01T08:09:15.725Z,24.23
2022-08-01T08:11:47.996Z,18.80
2022-08-01T08:14:18.467Z,13.98
2022-08-01T08:16:45.640Z,16.15
2022-08-01T08:19:12.614Z,15.75
2022-08-01T08:21:40.010Z,11.52
2022-08-01T08:24:26.502Z,16.80
2022-08-01T08:26:59.968Z,9.13
2022-08-01T08:29:28.801Z,14.95
2022-08-01T08:31:58.437Z,14.80
2022-08-01T08:34:26.261Z,13.23
2022-08-01T08:36:53.271Z,13.38
2022-08-01T08:39:20.350Z,18.45
2022-08-01T08:41:49.447Z,11.35
2022-08-01T08:44:18.070Z,13.50
2022-08-01T08:46:47.381Z,12.38
2022-08-01T08:49:17.553Z,17.42
2022-08-01T08:51:44.929Z,15.38
2022-08-01T08:54:13.771Z,11.18
2022-08-01T08:56:42.121Z,12.70
2022-08-01T08:59:08.727Z,8.82
2022-08-01T09:01:36.073Z,9.65
2022-08-01T09:04:06.289Z,9.85
2022-08-01T09:06:33.598Z,9.23
2022-08-01T09:09:00.826Z,7.60
2022-08-01T09:11:27.327Z,11.13
2022-08-01T09:14:12.710Z,6.28
2022-08-01T09:16:48.860Z,9.55
2022-08-01T09:19:40.423Z,10.60
2022-08-01T09:22:09.999Z,12.25
2022-08-01T09:24:37.660Z,14.70
2022-08-01T09:27:26.275Z,12.20
2022-08-01T09:30:00.811Z,10.32
2022-08-01T09:32:35.990Z,13.23
2022-08-01T09:35:43.668Z,13.38
2022-08-01T09:38:22.110Z,13.45
2022-08-01T09:40:49.880Z,16.00
2022-08-01T09:43:17.371Z,15.77
2022-08-01T09:45:45.733Z,13.23
2022-08-01T09:48:17.039Z,15.30
2022-08-01T09:50:45.039Z,16.25
2022-08-01T09:53:29.631Z,10.85
2022-08-01T09:56:09.722Z,13.32
2022-08-01T09:58:57.852Z,10.07
2022-08-01T10:01:26.603Z,11.10
2022-08-01T10:04:09.799Z,12.13
2022-08-01T10:06:37.592Z,13.27
2022-08-01T10:09:04.855Z,10.15
2022-08-01T10:11:36.094Z,12.98
2022-08-01T10:14:04.465Z,14.05
2022-08-01T10:16:31.620Z,12.77
2022-08-01T10:18:58.664Z,20.55
2022-08-01T10:21:56.231Z,18.10
2022-08-01T10:24:18.824Z,9.30
2022-08-01T10:26:48.976Z,15.43
2022-08-01T10:29:45.165Z,12.80
2022-08-01T10:32:10.141Z,10.73
2022-08-01T10:34:38.191Z,13.70
2022-08-01T10:37:08.279Z,12.40
2022-08-01T10:39:35.952Z,12.13
2022-08-01T10:42:05.859Z,9.70
2022-08-01T10:44:37.866Z,13.88
2022-08-01T10:47:14.671Z,13.10
2022-08-01T10:49:54.815Z,11.55
2022-08-01T10:52:21.529Z,11.68
2022-08-01T10:54:52.366Z,12.23
2022-08-01T10:57:19.621Z,8.63
2022-08-01T11:00:01.284Z,11.50
2022-08-01T11:02:34.474Z,10.18
2022-08-01T11:05:19.792Z,8.15
2022-08-01T11:07:54.220Z,11.30
2022-08-01T11:10:40.233Z,10.15
2022-08-01T11:13:12.263Z,9.10
2022-08-01T11:15:50.490Z,8.05
2022-08-01T11:18:32.007Z,9.70
2022-08-01T11:21:59.125Z,9.45
2022-08-01T11:23:54.861Z,9.63
2022-08-01T11:26:28.794Z,6.88
2022-08-01T11:29:23.049Z,7.43
2022-08-01T11:31:50.242Z,9.63
2022-08-01T11:34:16.811Z,8.45
2022-08-01T11:36:58.104Z,7.20
2022-08-01T11:39:25.660Z,10.73
2022-08-01T11:41:53.647Z,6.60
2022-08-01T11:44:30.570Z,9.90
2022-08-01T11:47:08.874Z,8.23
2022-08-01T11:49:55.710Z,8.30
2022-08-01T11:52:37.009Z,7.03
2022-08-01T11:55:03.398Z,7.57
2022-08-01T11:57:38.083Z,8.68
2022-08-01T12:00:17.730Z,10.55
2022-08-01T12:02:46.478Z,6.15
2022-08-01T12:05:21.462Z,7.65
2022-08-01T12:07:52.725Z,7.32
2022-08-01T12:10:21.285Z,9.55
2022-08-01T12:12:50.042Z,5.28
2022-08-01T12:15:17.623Z,6.03
2022-08-01T12:17:57.901Z,7.30
2022-08-01T12:20:32.369Z,5.57
2022-08-01T12:23:01.122Z,5.43
2022-08-01T12:25:27.673Z,5.10
2022-08-01T12:27:56.592Z,4.65
2022-08-01T12:30:25.448Z,4.38
2022-08-01T12:32:53.368Z,6.30
2022-08-01T12:35:24.074Z,7.65
2022-08-01T12:37:53.630Z,4.57
2022-08-01T12:40:22.908Z,5.15
2022-08-01T12:42:52.629Z,5.50
2022-08-01T12:45:31.284Z,4.60
2022-08-01T12:48:00.411Z,6.38
2022-08-01T12:50:30.704Z,6.68
2022-08-01T12:52:58.387Z,5.65
2022-08-01T12:55:34.097Z,6.93
2022-08-01T12:58:15.830Z,5.53
2022-08-01T13:00:45.215Z,6.38
2022-08-01T13:03:19.731Z,9.00
2022-08-01T13:05:47.721Z,4.55
2022-08-01T13:08:19.750Z,6.38
2022-08-01T13:10:47.052Z,4.70
2022-08-01T13:13:22.372Z,7.78
2022-08-01T13:16:05.452Z,9.52
2022-08-01T13:18:33.594Z,6.60
2022-08-01T13:21:16.240Z,8.30
2022-08-01T13:24:04.012Z,4.97
2022-08-01T13:27:01.864Z,5.25
2022-08-01T13:29:39.001Z,6.35
2022-08-01T13:32:29.420Z,8.27
2022-08-01T13:35:09.102Z,8.05
2022-08-01T13:37:38.713Z,6.40
2022-08-01T13:40:06.932Z,10.05
2022-08-01T13:42:33.568Z,8.98
2022-08-01T13:45:00.146Z,9.95
2022-08-01T13:47:31.671Z,10.38
2022-08-01T13:50:03.151Z,9.07
2022-08-01T13:52:31.517Z,10.85
2022-08-01T13:54:58.550Z,7.45
2022-08-01T13:57:25.094Z,7.95
2022-08-01T13:59:52.462Z,6.32
2022-08-01T14:02:20.127Z,6.38
2022-08-01T14:04:46.621Z,9.35
2022-08-01T14:07:14.975Z,7.50
2022-08-01T14:09:45.138Z,6.05
2022-08-01T14:12:29.558Z,9.10
2022-08-01T14:14:55.977Z,7.95
2022-08-01T14:17:22.497Z,6.25
2022-08-01T14:19:49.239Z,3.83
2022-08-01T14:22:15.867Z,10.43
2022-08-01T14:24:42.557Z,9.20
2022-08-01T14:27:09.728Z,6.65
2022-08-01T14:29:59.918Z,4.93
2022-08-01T14:32:25.947Z,5.53
2022-08-01T14:34:55.084Z,8.98
2022-08-01T14:37:21.593Z,11.00
2022-08-01T14:39:54.356Z,5.78
2022-08-01T14:42:21.339Z,4.78
2022-08-01T14:44:49.806Z,4.95
2022-08-01T14:47:21.854Z,6.88
2022-08-01T14:49:49.713Z,9.48
2022-08-01T14:52:16.207Z,8.52
2022-08-01T14:54:42.732Z,6.80
2022-08-01T14:57:09.763Z,6.30
2022-08-01T14:59:36.808Z,7.68
2022-08-01T15:02:03.747Z,6.18
2022-08-01T15:04:31.345Z,9.98
2022-08-01T15:06:58.007Z,7.53
2022-08-01T15:09:24.500Z,11.65
2022-08-01T15:11:52.984Z,10.70
2022-08-01T15:14:38.030Z,9.18
2022-08-01T15:17:04.615Z,10.23
2022-08-01T15:19:31.119Z,8.60
2022-08-01T15:21:57.574Z,8.45
2022-08-01T15:24:25.880Z,13.88
2022-08-01T15:26:52.355Z,11.70
2022-08-01T15:29:19.635Z,7.50
2022-08-01T15:31:46.485Z,7.93
2022-08-01T15:34:13.064Z,7.65
2022-08-01T15:36:41.942Z,10.70
2022-08-01T15:39:12.880Z,6.68
2022-08-01T15:41:39.392Z,7.40
2022-08-01T15:44:05.816Z,12.30
2022-08-01T15:46:32.332Z,8.55
2022-08-01T15:49:03.890Z,6.65
2022-08-01T15:51:30.310Z,8.70
2022-08-01T15:53:56.748Z,10.20
2022-08-01T15:56:23.332Z,10.38
2022-08-01T15:58:49.854Z,8.95
2022-08-01T16:01:16.329Z,10.13
2022-08-01T16:03:42.725Z,13.27
2022-08-01T16:06:09.256Z,11.00
2022-08-01T16:08:35.758Z,9.77
2022-08-01T16:11:02.308Z,11.98
2022-08-01T16:13:28.775Z,9.00
2022-08-01T16:15:55.163Z,6.28
2022-08-01T16:18:21.565Z,8.10
2022-08-01T16:20:48.035Z,10.77
2022-08-01T16:23:15.323Z,11.20
2022-08-01T16:25:41.948Z,10.85
2022-08-01T16:28:09.839Z,10.00
2022-08-01T16:30:37.051Z,10.63
2022-08-01T16:33:14.803Z,8.57
2022-08-01T16:35:50.756Z,10.73
2022-08-01T16:38:21.014Z,10.77
2022-08-01T16:40:49.622Z,8.90
2022-08-01T16:43:17.133Z,14.73
2022-08-01T16:45:44.528Z,17.02
2022-08-01T16:48:12.025Z,10.73
2022-08-01T16:50:39.146Z,13.90
2022-08-01T16:53:05.507Z,9.70
2022-08-01T16:55:49.445Z,10.15
2022-08-01T16:58:19.745Z,11.15
2022-08-01T17:00:57.490Z,12.25
2022-08-01T17:03:51.753Z,7.63
2022-08-01T17:06:15.395Z,11.38
2022-08-01T17:08:46.476Z,5.82
2022-08-01T17:11:14.596Z,9.07
2022-08-01T17:13:41.344Z,8.68
2022-08-01T17:16:08.814Z,11.18
2022-08-01T17:18:35.392Z,11.70
2022-08-01T17:21:01.881Z,13.68
2022-08-01T17:23:28.316Z,9.38
2022-08-01T17:25:54.722Z,10.20
2022-08-01T17:28:23.063Z,8.95
2022-08-01T17:30:49.991Z,11.10
2022-08-01T17:33:16.586Z,11.48
2022-08-01T17:35:43.273Z,8.43
2022-08-01T17:38:09.779Z,12.73
2022-08-01T17:40:40.841Z,10.38
2022-08-01T17:43:08.592Z,9.35
2022-08-01T17:45:39.409Z,8.75
2022-08-01T17:48:17.806Z,9.38
2022-08-01T17:50:46.554Z,9.02
2022-08-01T17:53:14.036Z,13.60
2022-08-01T17:55:55.374Z,7.80
2022-08-01T17:58:49.132Z,7.43
2022-08-01T18:01:15.006Z,9.35
2022-08-01T18:03:42.059Z,14.77
2022-08-01T18:06:14.331Z,13.48
2022-08-01T18:08:42.580Z,13.68
2022-08-01T18:11:09.749Z,5.85
2022-08-01T18:13:40.567Z,10.30
2022-08-01T18:16:09.119Z,8.95
2022-08-01T18:18:35.982Z,10.77
2022-08-01T18:21:02.653Z,11.95
2022-08-01T18:23:29.112Z,12.30
2022-08-01T18:25:55.676Z,11.02
2022-08-01T18:28:32.834Z,8.75
2022-08-01T18:31:00.758Z,10.95
2022-08-01T18:33:27.893Z,6.68
2022-08-01T18:35:56.570Z,9.50
2022-08-01T18:38:30.608Z,6.20
2022-08-01T18:40:57.197Z,10.20
2022-08-01T18:43:23.723Z,9.90
2022-08-01T18:45:50.325Z,10.15
2022-08-01T18:48:16.792Z,13.65
2022-08-01T18:50:43.188Z,13.02
2022-08-01T18:53:09.668Z,9.52
2022-08-01T18:55:36.207Z,6.30
2022-08-01T18:58:02.735Z,13.93
2022-08-01T19:00:29.316Z,18.10
2022-08-01T19:02:55.774Z,8.93
2022-08-01T19:05:22.293Z,13.73
2022-08-01T19:08:05.563Z,8.95
2022-08-01T19:10:38.919Z,10.70
2022-08-01T19:13:05.973Z,14.88
2022-08-01T19:15:32.491Z,10.48
2022-08-01T19:17:58.986Z,10.30
2022-08-01T19:20:26.403Z,11.00
2022-08-01T19:22:52.823Z,15.50
2022-08-01T19:25:19.563Z,12.43
2022-08-01T19:27:48.247Z,12.75
2022-08-01T19:30:16.086Z,9.73
2022-08-01T19:32:43.979Z,13.52
2022-08-01T19:35:13.223Z,10.23
2022-08-01T19:37:44.130Z,9.32
2022-08-01T19:40:10.884Z,11.85
2022-08-01T19:42:53.962Z,11.68
2022-08-01T19:45:20.564Z,12.07
2022-08-01T19:47:50.950Z,12.38
2022-08-01T19:50:24.043Z,10.35
2022-08-01T19:52:52.593Z,11.45
2022-08-01T19:55:19.333Z,14.75
2022-08-01T19:57:59.373Z,10.65
2022-08-01T20:00:37.837Z,16.10
2022-08-01T20:03:05.475Z,12.65
2022-08-01T20:05:32.116Z,7.90
2022-08-01T20:07:58.627Z,13.75
2022-08-01T20:10:25.276Z,9.25
2022-08-01T20:12:52.977Z,11.27
2022-08-01T20:15:21.045Z,10.50
2022-08-01T20:17:47.523Z,9.43
2022-08-01T20:20:13.904Z,7.60
2022-08-01T20:22:41.271Z,9.32
2022-08-01T20:25:09.441Z,11.10
2022-08-01T20:27:38.793Z,8.75
2022-08-01T20:30:05.843Z,8.23
2022-08-01T20:32:33.860Z,10.18
2022-08-01T20:35:01.563Z,11.45
2022-08-01T20:38:03.786Z,13.38
2022-08-01T20:40:16.257Z,11.25
2022-08-01T20:42:45.283Z,10.82
2022-08-01T20:45:16.635Z,14.13
2022-08-01T20:47:46.949Z,13.98
2022-08-01T20:50:53.373Z,13.68
2022-08-01T20:53:18.856Z,10.63
2022-08-01T20:55:49.723Z,10.30
2022-08-01T20:58:27.690Z,12.63
2022-08-01T21:00:56.791Z,10.32
2022-08-01T21:03:31.029Z,7.07
2022-08-01T21:06:07.860Z,14.13
2022-08-01T21:08:47.492Z,10.00
2022-08-01T21:11:19.512Z,11.35
2022-08-01T21:13:49.037Z,9.85
2022-08-01T21:16:22.693Z,12.27
2022-08-01T21:21:56.764Z,9.57
2022-08-01T21:24:32.834Z,7.88
2022-08-01T21:27:00.704Z,9.27
2022-08-01T21:29:27.923Z,12.50
2022-08-01T21:32:12.782Z,9.82
2022-08-01T21:34:40.163Z,15.98
2022-08-01T21:37:10.117Z,9.90
2022-08-01T21:39:37.716Z,12.13
2022-08-01T21:42:09.008Z,13.70
2022-08-01T21:44:38.902Z,11.00
2022-08-01T21:47:06.527Z,10.65
2022-08-01T21:49:38.747Z,9.50
2022-08-01T21:52:17.981Z,9.10
2022-08-01T21:55:01.131Z,10.88
2022-08-01T21:57:28.432Z,7.13
2022-08-01T22:00:26.067Z,11.00
2022-08-01T22:03:08.206Z,8.95
2022-08-01T22:05:51.032Z,12.80
2022-08-01T22:08:44.599Z,7.07
2022-08-01T22:11:13.893Z,12.50
2022-08-01T22:13:41.979Z,12.57
2022-08-01T22:16:10.156Z,8.13
2022-08-01T22:18:37.708Z,8.93
2022-08-01T22:21:04.493Z,12.93
2022-08-01T22:23:35.576Z,10.20
2022-08-01T22:26:02.111Z,12.07
2022-08-01T22:28:29.424Z,9.60
2022-08-01T22:30:57.349Z,8.18
2022-08-01T22:33:23.972Z,16.30
2022-08-01T22:35:52.541Z,11.48
2022-08-01T22:38:22.646Z,9.23
2022-08-01T22:40:52.496Z,16.33
2022-08-01T22:43:30.197Z,11.73
2022-08-01T22:46:14.491Z,6.43
2022-08-01T22:48:51.023Z,9.75
2022-08-01T22:51:38.165Z,8.88
2022-08-01T22:54:09.604Z,11.50
2022-08-01T22:56:41.329Z,9.13
2022-08-01T22:59:16.185Z,7.43
2022-08-01T23:01:47.717Z,9.48
2022-08-01T23:04:33.031Z,9.65
2022-08-01T23:07:05.080Z,9.30
2022-08-01T23:09:39.237Z,4.93
2022-08-01T23:12:22.317Z,5.90
2022-08-01T23:14:51.244Z,9.85
2022-08-01T23:17:27.169Z,9.65
2022-08-01T23:19:57.664Z,8.23
2022-08-01T23:22:29.041Z,7.40
2022-08-01T23:25:04.110Z,6.70
2022-08-01T23:28:03.823Z,9.50
2022-08-01T23:30:24.832Z,9.50
2022-08-01T23:32:51.286Z,5.45
2022-08-01T23:35:17.891Z,7.65
2022-08-01T23:37:44.273Z,6.75
2022-08-01T23:40:11.344Z,8.60
2022-08-01T23:42:37.841Z,6.78
2022-08-01T23:45:04.627Z,5.97
2022-08-01T23:47:31.076Z,8.45
2022-08-01T23:49:57.599Z,9.13
2022-08-01T23:52:24.148Z,6.93
2022-08-01T23:54:56.214Z,10.38
2022-08-01T23:57:23.612Z,9.60
2022-08-01T23:59:53.000Z,10.15
